x

Buoy F01 - West Penobscot Bay (44033) Wave Buoy

8:04 - Sat 25th Oct 2014 All times are EDT. -4 hours from GMT.

  • Sig Wave height 1.3ft
  • Peak Period 3s
  • Wind
    9mph, 11mph gusts
  • Sea Temp 54°f
  • Luft Temp 55°f
  • Sea Pressure 999.6mb
  • Buoy F01 - West Penobscot Bay
  • Buoy F01 - West Penobscot Bay

More Historic Weather Station data

Upgrade to MSW Pro to gain access to the past 30 days of data for over 8000 Wavebouys and Weather Stations around the globe.

Join Pro

Comparision Forecast

View Surf forecast
   
Sa 10/25 8:04 1.3ft 3s 9 11 mph 999.6mb 54f 55f
7:04 1.3ft 3s 11 16 mph 1000mb 54f 54f
6:04 1.3ft 3s 11 13 mph 999.9mb 55f 54f
5:04 1.6ft 4s 11 13 mph 999.6mb 55f 55f
4:04 1.6ft 8s 11 13 mph 1000mb 55f 55f
3:04 1.3ft 3s 13
mph
1000.4mb 55f 56f
2:04 1ft 8s 11 13 mph 1000.6mb 55f 55f
1:04 1ft 11s 4 7 mph 1001.2mb 55f 55f
12:04 1.3ft 11s 4 7 mph 1002mb 55f 55f
11:04 0.7ft  -  9 11 mph 1002.6mb 55f 53f
10:04 0.7ft  -  9 11 mph 1003.4mb 54f 51f
9:04 1.3ft 11s 11 13 mph 1004mb 54f 49f
8:04 1.6ft 11s 9 11 mph 1004.1mb 54f 50f
7:04 1.3ft 8s 9
mph
1004mb 54f 48f
6:04 1.6ft 8s 13 18 mph 1003.8mb 54f 50f
5:04 1.6ft 11s 16 18 mph 1003.4mb 54f 50f
4:04 2.5ft 11s 13 16 mph 1003.1mb 54f 49f
3:04 1.3ft 8s 9 13 mph 1003.3mb 54f 47f
2:04 2ft 11s 13 16 mph 1003.1mb 54f 48f
1:04 3ft 11s 16 18 mph 1002.9mb 54f 48f
12:04 2ft 3s 16 20 mph 1003.1mb 54f 48f
Fr 10/24 10:04 2ft 3s 16 18 mph 1003.4mb 54f 48f
9:04 2ft 4s 20 25 mph 1003.6mb 54f 48f
8:04 2ft 3s 20 22 mph 1003.4mb 54f 49f
7:04 2ft 4s 20 25 mph 1002.9mb 54f 49f
6:04  -   -  22 27 mph 1002.5mb 54f 50f
5:04 3.5ft 11s 20 22 mph 1002.2mb 54f 50f
4:04 2.5ft 3s 20 27 mph 1002mb 55f 50f
3:04 2.5ft 3s 20 25 mph 1001.8mb 55f 49f
2:04  -   -  25 29 mph 1002mb 55f 49f
1:04 2ft 4s 22 29 mph 1002.2mb 55f 49f
12:04 2.5ft 4s 22 29 mph 1002.6mb 55f 49f
11:04 4.5ft 11s 25 29 mph 1002.6mb 55f 49f
10:04 3.5ft 8s 22 27 mph 1002.7mb 55f 49f
9:04 3ft 4s 25 29 mph 1002.5mb 55f 49f
8:04  -   -  25 29 mph 1002.3mb 55f 49f
7:04 4ft 8s 27 29 mph 1002.5mb 54f 50f
6:04 4.5ft 11s 25 27 mph 1002.5mb 55f 51f
5:04 4.5ft 8s 25 29 mph 1002.2mb 55f 51f
4:04 5ft 11s 25 29 mph 1002mb 55f 51f
3:04 5ft 8s 27 31 mph 1002.4mb 55f 51f
2:04 5ft 11s 27 31 mph 1002.5mb 55f 51f
1:04 6ft 11s 27 34 mph 1002.8mb 55f 51f
12:04 5.5ft 11s 27 31 mph 1003.4mb 55f 51f
Do 10/23 11:04 3.5ft 4s 27 34 mph 1003.5mb 55f 51f
10:04 3.5ft 5s 29 38 mph 1004.1mb 55f 52f
9:04 4ft 4s 31 38 mph 1004.2mb 55f 52f
8:04 4.5ft 8s 27 31 mph 1005.3mb 55f 53f
7:04 5ft 8s 25 29 mph 1005.6mb 55f 53f
6:04  -   -  22 25 mph 1005.9mb 55f 53f
5:04 5ft 8s 27 31 mph 1005.9mb 55f 53f
4:04 5ft 8s 27 31 mph 1006.4mb 55f 53f
3:04  -   -  25 29 mph 1006.8mb 55f 53f
2:04  -   -  25 29 mph 1006.5mb 55f 53f
1:04 6.5ft 11s 25 31 mph 1007.2mb 55f 53f
12:04 6ft 8s 27 34 mph 1007.5mb 55f 53f
11:04 5ft 8s 25 31 mph 1007.4mb 55f 53f
10:04 5.5ft 8s 27 36 mph 1007.8mb 55f 53f
9:04 3.5ft 5s 29 36 mph 1007.8mb 55f 53f
8:04 5ft 8s 27 34 mph 1008.9mb 55f 53f
7:04 5ft 8s 29 36 mph 1009.3mb 55f 52f
6:04 4.5ft 8s 29 34 mph 1010mb 55f 52f
5:04 3.5ft 5s 27 34 mph 1010.5mb 55f 52f
4:04  -   -  27 31 mph 1011.1mb 55f 52f
3:04 5.5ft 11s 27 29 mph 1011.8mb 55f 51f
2:04 3.5ft 4s 29 36 mph 1012.6mb 55f 50f
1:04 4.5ft 4s 27 34 mph 1013.4mb 55f 50f
12:04 4.5ft 4s 31 36 mph 1014.3mb 55f 50f
Mi 10/22 11:04  -   -  29 36 mph 1015mb 55f 50f
10:04  -   -  27 34 mph 1015.9mb 55f 51f
9:04 4.5ft 5s 29 34 mph 1015.6mb 55f 51f
8:04 5ft 8s 27 36 mph 1016.5mb 55f 51f
7:04 7.5ft 11s 27 34 mph 1017.4mb 55f 51f
6:04 5.5ft 8s 27 31 mph 1018mb 55f 51f
5:04 5ft 5s 27 34 mph 1017.7mb 55f 51f
4:04 5ft 4s 29 38 mph 1017.4mb 55f 51f
3:04 5.5ft 8s 34 38 mph 1016.7mb 55f 50f
2:04 4.5ft 5s 34 40 mph 1016.7mb 55f 50f
1:04 4.5ft 4s 31 36 mph 1017.2mb 55f 50f
12:04 4.5ft 8s 29 34 mph 1018mb 55f 52f
11:04 4ft 4s 27 36 mph 1018.2mb 55f 52f
10:04 4.5ft 8s 27 31 mph 1018.3mb 55f 52f
9:04 4.5ft 8s 25 29 mph 1018.9mb 55f 51f
8:04 4.5ft 8s 22 25 mph 1019.1mb 55f 51f
7:04 4.5ft 8s 22 27 mph 1018.8mb 55f 51f
6:04 4.5ft 6s 20 25 mph 1018.8mb 55f 52f
5:04 3.5ft 6s 20 25 mph 1018.6mb 55f 52f
4:04 4ft 6s 22 27 mph 1017.9mb 55f 52f
3:04 4ft 6s 20 25 mph 1017.9mb 55f 52f
2:04 4.5ft 6s 20 27 mph 1018mb 55f 53f